sensor_id;sensor_type;location;lat;lon;timestamp;P1;durP1;ratioP1;P2;durP2;ratioP2
836;SDS011;400;53.550;9.932;2023-02-01T00:01:31;12.32;;;2.90;;
836;SDS011;400;53.550;9.932;2023-02-01T00:03:58;10.50;;;3.13;;
836;SDS011;400;53.550;9.932;2023-02-01T00:06:25;11.93;;;3.40;;
836;SDS011;400;53.550;9.932;2023-02-01T00:08:55;16.75;;;5.97;;
836;SDS011;400;53.550;9.932;2023-02-01T00:11:22;14.15;;;4.57;;
836;SDS011;400;53.550;9.932;2023-02-01T00:13:49;10.68;;;2.90;;
836;SDS011;400;53.550;9.932;2023-02-01T00:16:17;15.60;;;4.00;;
836;SDS011;400;53.550;9.932;2023-02-01T00:18:47;8.02;;;3.40;;
836;SDS011;400;53.550;9.932;2023-02-01T00:21:20;10.05;;;3.45;;
836;SDS011;400;53.550;9.932;2023-02-01T00:23:50;11.32;;;3.65;;
836;SDS011;400;53.550;9.932;2023-02-01T00:26:19;17.70;;;4.15;;
836;SDS011;400;53.550;9.932;2023-02-01T00:28:54;12.52;;;4.78;;
836;SDS011;400;53.550;9.932;2023-02-01T00:31:26;10.77;;;4.05;;
836;SDS011;400;53.550;9.932;2023-02-01T00:33:59;13.02;;;4.78;;
836;SDS011;400;53.550;9.932;2023-02-01T00:36:32;11.30;;;3.55;;
836;SDS011;400;53.550;9.932;2023-02-01T00:39:00;13.38;;;4.53;;
836;SDS011;400;53.550;9.932;2023-02-01T00:41:29;16.13;;;4.85;;
836;SDS011;400;53.550;9.932;2023-02-01T00:43:56;14.85;;;4.30;;
836;SDS011;400;53.550;9.932;2023-02-01T00:46:23;13.02;;;3.38;;
836;SDS011;400;53.550;9.932;2023-02-01T00:48:50;15.88;;;3.58;;
836;SDS011;400;53.550;9.932;2023-02-01T00:51:22;9.38;;;3.08;;
836;SDS011;400;53.550;9.932;2023-02-01T00:53:50;14.02;;;5.10;;
836;SDS011;400;53.550;9.932;2023-02-01T00:56:18;16.42;;;4.15;;
836;SDS011;400;53.550;9.932;2023-02-01T00:58:50;16.10;;;4.95;;
836;SDS011;400;53.550;9.932;2023-02-01T01:01:22;23.48;;;4.75;;
836;SDS011;400;53.550;9.932;2023-02-01T01:03:51;9.85;;;3.75;;
836;SDS011;400;53.550;9.932;2023-02-01T01:06:22;11.00;;;4.93;;
836;SDS011;400;53.550;9.932;2023-02-01T01:08:51;9.63;;;3.92;;
836;SDS011;400;53.550;9.932;2023-02-01T01:11:20;13.63;;;5.18;;
836;SDS011;400;53.550;9.932;2023-02-01T01:13:48;21.52;;;5.15;;
836;SDS011;400;53.550;9.932;2023-02-01T01:16:16;17.75;;;5.38;;
836;SDS011;400;53.550;9.932;2023-02-01T01:18:46;15.60;;;4.47;;
836;SDS011;400;53.550;9.932;2023-02-01T01:21:14;14.00;;;4.63;;
836;SDS011;400;53.550;9.932;2023-02-01T01:23:43;21.73;;;5.18;;
836;SDS011;400;53.550;9.932;2023-02-01T01:26:12;25.58;;;5.05;;
836;SDS011;400;53.550;9.932;2023-02-01T01:28:41;15.52;;;3.97;;
836;SDS011;400;53.550;9.932;2023-02-01T01:31:14;20.10;;;5.15;;
836;SDS011;400;53.550;9.932;2023-02-01T01:33:42;23.40;;;4.53;;
836;SDS011;400;53.550;9.932;2023-02-01T01:36:12;17.38;;;5.00;;
836;SDS011;400;53.550;9.932;2023-02-01T01:38:39;13.63;;;4.70;;
836;SDS011;400;53.550;9.932;2023-02-01T01:41:11;18.10;;;5.05;;
836;SDS011;400;53.550;9.932;2023-02-01T01:43:51;15.80;;;4.57;;
836;SDS011;400;53.550;9.932;2023-02-01T01:46:22;17.83;;;4.72;;
836;SDS011;400;53.550;9.932;2023-02-01T01:48:53;28.00;;;7.68;;
836;SDS011;400;53.550;9.932;2023-02-01T01:51:26;17.70;;;4.63;;
836;SDS011;400;53.550;9.932;2023-02-01T01:54:02;17.50;;;4.82;;
836;SDS011;400;53.550;9.932;2023-02-01T01:56:36;19.63;;;4.55;;
836;SDS011;400;53.550;9.932;2023-02-01T01:59:03;21.10;;;4.53;;
836;SDS011;400;53.550;9.932;2023-02-01T02:01:31;16.38;;;5.03;;
836;SDS011;400;53.550;9.932;2023-02-01T02:03:58;21.45;;;5.90;;
836;SDS011;400;53.550;9.932;2023-02-01T02:09:19;13.10;;;4.60;;
836;SDS011;400;53.550;9.932;2023-02-01T02:11:47;15.60;;;4.10;;
836;SDS011;400;53.550;9.932;2023-02-01T02:14:15;14.73;;;5.80;;
836;SDS011;400;53.550;9.932;2023-02-01T02:17:03;19.02;;;5.10;;
836;SDS011;400;53.550;9.932;2023-02-01T02:19:52;22.45;;;6.00;;
836;SDS011;400;53.550;9.932;2023-02-01T02:31:45;21.30;;;6.10;;
836;SDS011;400;53.550;9.932;2023-02-01T02:34:33;20.95;;;4.85;;
836;SDS011;400;53.550;9.932;2023-02-01T02:37:07;20.88;;;5.78;;
836;SDS011;400;53.550;9.932;2023-02-01T02:39:44;21.75;;;5.75;;
836;SDS011;400;53.550;9.932;2023-02-01T02:42:22;16.63;;;4.65;;
836;SDS011;400;53.550;9.932;2023-02-01T02:45:14;16.85;;;4.28;;
836;SDS011;400;53.550;9.932;2023-02-01T02:48:05;18.70;;;4.60;;
836;SDS011;400;53.550;9.932;2023-02-01T02:50:40;16.15;;;4.60;;
836;SDS011;400;53.550;9.932;2023-02-01T02:53:34;19.92;;;4.57;;
836;SDS011;400;53.550;9.932;2023-02-01T02:56:28;20.90;;;5.82;;
836;SDS011;400;53.550;9.932;2023-02-01T02:59:14;19.10;;;5.30;;
836;SDS011;400;53.550;9.932;2023-02-01T03:02:03;21.05;;;4.10;;
836;SDS011;400;53.550;9.932;2023-02-01T03:04:51;18.80;;;4.72;;
836;SDS011;400;53.550;9.932;2023-02-01T03:10:27;16.67;;;4.53;;
836;SDS011;400;53.550;9.932;2023-02-01T03:13:04;11.57;;;4.60;;
836;SDS011;400;53.550;9.932;2023-02-01T03:15:35;15.48;;;5.00;;
836;SDS011;400;53.550;9.932;2023-02-01T03:18:12;17.60;;;4.72;;
836;SDS011;400;53.550;9.932;2023-02-01T03:20:43;18.02;;;4.13;;
836;SDS011;400;53.550;9.932;2023-02-01T03:23:15;12.35;;;4.65;;
836;SDS011;400;53.550;9.932;2023-02-01T03:25:45;13.50;;;3.65;;
836;SDS011;400;53.550;9.932;2023-02-01T03:28:15;12.38;;;3.30;;
836;SDS011;400;53.550;9.932;2023-02-01T03:30:46;7.30;;;4.00;;
836;SDS011;400;53.550;9.932;2023-02-01T03:33:15;9.02;;;2.55;;
836;SDS011;400;53.550;9.932;2023-02-01T03:35:54;12.77;;;3.08;;
836;SDS011;400;53.550;9.932;2023-02-01T03:38:33;5.10;;;2.92;;
836;SDS011;400;53.550;9.932;2023-02-01T03:41:08;12.63;;;3.20;;
836;SDS011;400;53.550;9.932;2023-02-01T03:43:43;11.98;;;2.70;;
836;SDS011;400;53.550;9.932;2023-02-01T03:46:22;12.15;;;2.42;;
836;SDS011;400;53.550;9.932;2023-02-01T03:48:58;8.23;;;2.67;;
836;SDS011;400;53.550;9.932;2023-02-01T03:51:30;5.20;;;2.30;;
836;SDS011;400;53.550;9.932;2023-02-01T03:54:02;7.97;;;2.10;;
836;SDS011;400;53.550;9.932;2023-02-01T03:56:33;10.65;;;2.55;;
836;SDS011;400;53.550;9.932;2023-02-01T03:59:04;7.60;;;2.75;;
836;SDS011;400;53.550;9.932;2023-02-01T04:01:33;8.18;;;2.40;;
836;SDS011;400;53.550;9.932;2023-02-01T04:04:00;8.18;;;2.83;;
836;SDS011;400;53.550;9.932;2023-02-01T04:06:27;8.73;;;2.95;;
836;SDS011;400;53.550;9.932;2023-02-01T04:08:57;7.82;;;2.70;;
836;SDS011;400;53.550;9.932;2023-02-01T04:11:27;10.70;;;3.33;;
836;SDS011;400;53.550;9.932;2023-02-01T04:13:55;15.27;;;3.28;;
836;SDS011;400;53.550;9.932;2023-02-01T04:16:21;13.70;;;3.45;;
836;SDS011;400;53.550;9.932;2023-02-01T04:18:49;7.28;;;3.03;;
836;SDS011;400;53.550;9.932;2023-02-01T04:21:18;12.63;;;3.20;;
836;SDS011;400;53.550;9.932;2023-02-01T04:23:48;6.15;;;2.13;;
836;SDS011;400;53.550;9.932;2023-02-01T04:26:16;6.18;;;2.70;;
836;SDS011;400;53.550;9.932;2023-02-01T04:28:47;12.63;;;3.65;;
836;SDS011;400;53.550;9.932;2023-02-01T04:31:14;9.18;;;2.20;;
836;SDS011;400;53.550;9.932;2023-02-01T04:33:41;8.82;;;2.85;;
836;SDS011;400;53.550;9.932;2023-02-01T04:36:09;5.80;;;2.28;;
836;SDS011;400;53.550;9.932;2023-02-01T04:38:38;10.00;;;3.20;;
836;SDS011;400;53.550;9.932;2023-02-01T04:41:07;8.20;;;2.45;;
836;SDS011;400;53.550;9.932;2023-02-01T04:43:34;9.38;;;2.75;;
836;SDS011;400;53.550;9.932;2023-02-01T04:46:03;9.15;;;2.92;;
836;SDS011;400;53.550;9.932;2023-02-01T04:48:29;13.75;;;3.05;;
836;SDS011;400;53.550;9.932;2023-02-01T04:50:56;6.60;;;2.30;;
836;SDS011;400;53.550;9.932;2023-02-01T04:53:24;6.18;;;1.23;;
836;SDS011;400;53.550;9.932;2023-02-01T04:55:51;6.75;;;2.30;;
836;SDS011;400;53.550;9.932;2023-02-01T04:58:19;5.45;;;2.08;;
836;SDS011;400;53.550;9.932;2023-02-01T05:00:46;7.15;;;2.03;;
836;SDS011;400;53.550;9.932;2023-02-01T05:03:14;1.92;;;1.15;;
836;SDS011;400;53.550;9.932;2023-02-01T05:05:42;5.25;;;1.30;;
836;SDS011;400;53.550;9.932;2023-02-01T05:08:10;5.13;;;1.65;;
836;SDS011;400;53.550;9.932;2023-02-01T05:10:36;0.68;;;0.32;;
836;SDS011;400;53.550;9.932;2023-02-01T05:13:04;1.75;;;0.90;;
836;SDS011;400;53.550;9.932;2023-02-01T05:15:49;2.30;;;0.68;;
836;SDS011;400;53.550;9.932;2023-02-01T05:18:18;2.95;;;0.80;;
836;SDS011;400;53.550;9.932;2023-02-01T05:20:44;4.22;;;0.70;;
836;SDS011;400;53.550;9.932;2023-02-01T05:23:11;1.00;;;0.57;;
836;SDS011;400;53.550;9.932;2023-02-01T05:25:38;2.70;;;1.70;;
836;SDS011;400;53.550;9.932;2023-02-01T05:28:05;1.00;;;0.30;;
836;SDS011;400;53.550;9.932;2023-02-01T05:30:32;0.88;;;0.57;;
836;SDS011;400;53.550;9.932;2023-02-01T05:33:03;2.28;;;1.30;;
836;SDS011;400;53.550;9.932;2023-02-01T05:35:32;1.17;;;0.95;;
836;SDS011;400;53.550;9.932;2023-02-01T05:37:59;0.65;;;0.65;;
836;SDS011;400;53.550;9.932;2023-02-01T05:40:27;0.65;;;0.38;;
836;SDS011;400;53.550;9.932;2023-02-01T05:42:57;0.93;;;0.40;;
836;SDS011;400;53.550;9.932;2023-02-01T05:45:32;0.30;;;0.20;;
836;SDS011;400;53.550;9.932;2023-02-01T05:47:59;0.93;;;0.30;;
836;SDS011;400;53.550;9.932;2023-02-01T05:50:28;0.30;;;0.30;;
836;SDS011;400;53.550;9.932;2023-02-01T05:52:56;1.98;;;0.30;;
836;SDS011;400;53.550;9.932;2023-02-01T05:55:24;0.70;;;0.35;;
836;SDS011;400;53.550;9.932;2023-02-01T05:57:56;0.30;;;0.30;;
836;SDS011;400;53.550;9.932;2023-02-01T06:00:31;0.90;;;0.20;;
836;SDS011;400;53.550;9.932;2023-02-01T06:03:00;0.55;;;0.35;;
836;SDS011;400;53.550;9.932;2023-02-01T06:05:26;0.70;;;0.40;;
836;SDS011;400;53.550;9.932;2023-02-01T06:07:56;2.08;;;0.65;;
836;SDS011;400;53.550;9.932;2023-02-01T06:10:24;0.82;;;0.47;;
836;SDS011;400;53.550;9.932;2023-02-01T06:12:51;0.57;;;0.40;;
836;SDS011;400;53.550;9.932;2023-02-01T06:15:21;1.95;;;0.90;;
836;SDS011;400;53.550;9.932;2023-02-01T06:17:57;1.35;;;0.65;;
836;SDS011;400;53.550;9.932;2023-02-01T06:20:41;5.10;;;0.88;;
836;SDS011;400;53.550;9.932;2023-02-01T06:23:17;3.80;;;0.85;;
836;SDS011;400;53.550;9.932;2023-02-01T06:25:44;1.92;;;0.65;;
836;SDS011;400;53.550;9.932;2023-02-01T06:28:11;2.33;;;0.57;;
836;SDS011;400;53.550;9.932;2023-02-01T06:30:40;1.75;;;1.67;;
836;SDS011;400;53.550;9.932;2023-02-01T06:33:11;2.28;;;1.13;;
836;SDS011;400;53.550;9.932;2023-02-01T06:35:42;4.75;;;1.63;;
836;SDS011;400;53.550;9.932;2023-02-01T06:38:13;5.72;;;1.25;;
836;SDS011;400;53.550;9.932;2023-02-01T06:40:43;4.53;;;1.63;;
836;SDS011;400;53.550;9.932;2023-02-01T06:43:22;4.78;;;1.10;;
836;SDS011;400;53.550;9.932;2023-02-01T06:45:59;5.20;;;1.50;;
836;SDS011;400;53.550;9.932;2023-02-01T06:48:33;5.13;;;1.80;;
836;SDS011;400;53.550;9.932;2023-02-01T06:51:00;12.27;;;2.15;;
836;SDS011;400;53.550;9.932;2023-02-01T06:53:27;3.20;;;1.30;;
836;SDS011;400;53.550;9.932;2023-02-01T06:55:58;4.55;;;1.63;;
836;SDS011;400;53.550;9.932;2023-02-01T06:58:27;4.18;;;1.83;;
836;SDS011;400;53.550;9.932;2023-02-01T07:00:57;6.97;;;2.60;;
836;SDS011;400;53.550;9.932;2023-02-01T07:03:26;5.18;;;2.10;;
836;SDS011;400;53.550;9.932;2023-02-01T07:05:59;5.80;;;2.03;;
836;SDS011;400;53.550;9.932;2023-02-01T07:08:30;11.40;;;3.83;;
836;SDS011;400;53.550;9.932;2023-02-01T07:11:04;6.05;;;2.15;;
836;SDS011;400;53.550;9.932;2023-02-01T07:13:37;8.20;;;2.80;;
836;SDS011;400;53.550;9.932;2023-02-01T07:16:10;5.35;;;2.13;;
836;SDS011;400;53.550;9.932;2023-02-01T07:18:46;10.63;;;3.60;;
836;SDS011;400;53.550;9.932;2023-02-01T07:21:15;12.32;;;3.38;;
836;SDS011;400;53.550;9.932;2023-02-01T07:23:42;15.20;;;2.70;;
836;SDS011;400;53.550;9.932;2023-02-01T07:26:11;16.52;;;4.28;;
836;SDS011;400;53.550;9.932;2023-02-01T07:28:40;15.65;;;4.25;;
836;SDS011;400;53.550;9.932;2023-02-01T07:31:08;13.18;;;3.63;;
836;SDS011;400;53.550;9.932;2023-02-01T07:33:36;9.80;;;3.08;;
836;SDS011;400;53.550;9.932;2023-02-01T07:36:04;11.02;;;3.58;;
836;SDS011;400;53.550;9.932;2023-02-01T07:38:33;18.85;;;3.88;;
836;SDS011;400;53.550;9.932;2023-02-01T07:41:12;18.55;;;4.18;;
836;SDS011;400;53.550;9.932;2023-02-01T07:43:40;9.15;;;2.63;;
836;SDS011;400;53.550;9.932;2023-02-01T07:46:10;8.73;;;3.92;;
836;SDS011;400;53.550;9.932;2023-02-01T07:48:37;32.88;;;6.00;;
836;SDS011;400;53.550;9.932;2023-02-01T07:51:08;12.82;;;3.50;;
836;SDS011;400;53.550;9.932;2023-02-01T07:53:40;12.10;;;3.85;;
836;SDS011;400;53.550;9.932;2023-02-01T07:56:10;22.88;;;4.82;;
836;SDS011;400;53.550;9.932;2023-02-01T07:58:47;16.92;;;4.68;;
836;SDS011;400;53.550;9.932;2023-02-01T08:01:28;16.10;;;3.90;;
836;SDS011;400;53.550;9.932;2023-02-01T08:04:07;11.45;;;4.22;;
836;SDS011;400;53.550;9.932;2023-02-01T08:06:44;16.88;;;4.40;;
836;SDS011;400;53.550;9.932;2023-02-01T08:09:11;15.02;;;4.03;;
836;SDS011;400;53.550;9.932;2023-02-01T08:11:43;15.05;;;3.42;;
836;SDS011;400;53.550;9.932;2023-02-01T08:14:10;16.85;;;4.32;;
836;SDS011;400;53.550;9.932;2023-02-01T08:16:43;9.77;;;3.67;;
836;SDS011;400;53.550;9.932;2023-02-01T08:19:12;14.75;;;5.82;;
836;SDS011;400;53.550;9.932;2023-02-01T08:21:47;17.58;;;4.20;;
836;SDS011;400;53.550;9.932;2023-02-01T08:24:15;11.77;;;4.75;;
836;SDS011;400;53.550;9.932;2023-02-01T08:26:44;14.60;;;3.83;;
836;SDS011;400;53.550;9.932;2023-02-01T08:29:16;16.80;;;4.68;;
836;SDS011;400;53.550;9.932;2023-02-01T08:31:43;13.57;;;3.97;;
836;SDS011;400;53.550;9.932;2023-02-01T08:34:16;17.42;;;3.92;;
836;SDS011;400;53.550;9.932;2023-02-01T08:36:43;15.50;;;3.75;;
836;SDS011;400;53.550;9.932;2023-02-01T08:39:13;7.05;;;2.45;;
836;SDS011;400;53.550;9.932;2023-02-01T08:41:46;9.05;;;2.25;;
836;SDS011;400;53.550;9.932;2023-02-01T08:44:36;12.23;;;2.83;;
836;SDS011;400;53.550;9.932;2023-02-01T08:47:06;13.20;;;3.60;;
836;SDS011;400;53.550;9.932;2023-02-01T08:49:33;14.82;;;4.25;;
836;SDS011;400;53.550;9.932;2023-02-01T08:52:00;17.42;;;4.38;;
836;SDS011;400;53.550;9.932;2023-02-01T08:54:28;15.38;;;4.15;;
836;SDS011;400;53.550;9.932;2023-02-01T08:57:15;12.05;;;4.38;;
836;SDS011;400;53.550;9.932;2023-02-01T08:59:48;13.98;;;4.10;;
836;SDS011;400;53.550;9.932;2023-02-01T09:02:16;25.73;;;12.80;;
836;SDS011;400;53.550;9.932;2023-02-01T09:04:45;12.40;;;3.60;;
836;SDS011;400;53.550;9.932;2023-02-01T09:07:14;17.00;;;3.78;;
836;SDS011;400;53.550;9.932;2023-02-01T09:09:44;18.65;;;4.43;;
836;SDS011;400;53.550;9.932;2023-02-01T09:12:12;12.63;;;4.15;;
836;SDS011;400;53.550;9.932;2023-02-01T09:14:45;12.52;;;3.08;;
836;SDS011;400;53.550;9.932;2023-02-01T09:17:27;18.90;;;4.60;;
836;SDS011;400;53.550;9.932;2023-02-01T09:19:56;9.70;;;3.63;;
836;SDS011;400;53.550;9.932;2023-02-01T09:22:23;17.30;;;6.30;;
836;SDS011;400;53.550;9.932;2023-02-01T09:24:50;7.85;;;3.08;;
836;SDS011;400;53.550;9.932;2023-02-01T09:27:23;11.52;;;2.88;;
836;SDS011;400;53.550;9.932;2023-02-01T09:29:51;7.28;;;2.70;;
836;SDS011;400;53.550;9.932;2023-02-01T09:32:23;14.32;;;3.90;;
836;SDS011;400;53.550;9.932;2023-02-01T09:35:13;12.68;;;4.25;;
836;SDS011;400;53.550;9.932;2023-02-01T09:37:42;12.90;;;3.58;;
836;SDS011;400;53.550;9.932;2023-02-01T09:40:13;16.73;;;3.90;;
836;SDS011;400;53.550;9.932;2023-02-01T09:42:48;13.43;;;4.30;;
836;SDS011;400;53.550;9.932;2023-02-01T09:45:47;13.35;;;4.07;;
836;SDS011;400;53.550;9.932;2023-02-01T09:48:21;11.15;;;4.15;;
836;SDS011;400;53.550;9.932;2023-02-01T09:50:59;12.35;;;4.88;;
836;SDS011;400;53.550;9.932;2023-02-01T09:53:32;11.90;;;4.20;;
836;SDS011;400;53.550;9.932;2023-02-01T09:56:06;12.90;;;3.75;;
836;SDS011;400;53.550;9.932;2023-02-01T09:58:44;16.17;;;4.50;;
836;SDS011;400;53.550;9.932;2023-02-01T10:01:19;13.18;;;4.00;;
836;SDS011;400;53.550;9.932;2023-02-01T10:03:48;17.20;;;4.03;;
836;SDS011;400;53.550;9.932;2023-02-01T10:06:20;15.52;;;3.80;;
836;SDS011;400;53.550;9.932;2023-02-01T10:09:14;16.88;;;6.50;;
836;SDS011;400;53.550;9.932;2023-02-01T10:12:00;11.10;;;2.70;;
836;SDS011;400;53.550;9.932;2023-02-01T10:14:49;18.33;;;4.00;;
836;SDS011;400;53.550;9.932;2023-02-01T10:17:27;15.13;;;3.30;;
836;SDS011;400;53.550;9.932;2023-02-01T10:20:05;16.58;;;3.70;;
836;SDS011;400;53.550;9.932;2023-02-01T10:22:43;11.35;;;4.53;;
836;SDS011;400;53.550;9.932;2023-02-01T10:25:19;13.32;;;4.25;;
836;SDS011;400;53.550;9.932;2023-02-01T10:27:50;12.07;;;3.85;;
836;SDS011;400;53.550;9.932;2023-02-01T10:30:21;5.75;;;2.45;;
836;SDS011;400;53.550;9.932;2023-02-01T10:32:56;12.90;;;4.47;;
836;SDS011;400;53.550;9.932;2023-02-01T10:35:31;17.30;;;4.40;;
836;SDS011;400;53.550;9.932;2023-02-01T10:38:01;9.90;;;3.08;;
836;SDS011;400;53.550;9.932;2023-02-01T10:40:36;9.60;;;3.83;;
836;SDS011;400;53.550;9.932;2023-02-01T10:43:10;14.60;;;3.50;;
836;SDS011;400;53.550;9.932;2023-02-01T10:45:54;13.60;;;3.15;;
836;SDS011;400;53.550;9.932;2023-02-01T10:48:35;9.75;;;2.55;;
836;SDS011;400;53.550;9.932;2023-02-01T10:51:05;13.18;;;3.80;;
836;SDS011;400;53.550;9.932;2023-02-01T10:53:40;15.77;;;3.80;;
836;SDS011;400;53.550;9.932;2023-02-01T10:56:11;16.70;;;4.40;;
836;SDS011;400;53.550;9.932;2023-02-01T10:58:47;12.23;;;4.88;;
836;SDS011;400;53.550;9.932;2023-02-01T11:01:42;11.07;;;3.30;;
836;SDS011;400;53.550;9.932;2023-02-01T11:04:27;17.13;;;3.50;;
836;SDS011;400;53.550;9.932;2023-02-01T11:07:07;12.98;;;3.58;;
836;SDS011;400;53.550;9.932;2023-02-01T11:10:10;11.70;;;3.78;;
836;SDS011;400;53.550;9.932;2023-02-01T11:13:20;9.45;;;4.63;;
836;SDS011;400;53.550;9.932;2023-02-01T11:15:55;9.60;;;2.78;;
836;SDS011;400;53.550;9.932;2023-02-01T11:18:32;9.75;;;2.90;;
836;SDS011;400;53.550;9.932;2023-02-01T11:21:05;8.35;;;4.15;;
836;SDS011;400;53.550;9.932;2023-02-01T11:23:39;13.18;;;3.50;;
836;SDS011;400;53.550;9.932;2023-02-01T11:26:11;20.70;;;5.95;;
836;SDS011;400;53.550;9.932;2023-02-01T11:28:46;20.05;;;4.18;;
836;SDS011;400;53.550;9.932;2023-02-01T11:31:24;15.27;;;4.38;;
836;SDS011;400;53.550;9.932;2023-02-01T11:34:03;6.80;;;3.00;;
836;SDS011;400;53.550;9.932;2023-02-01T11:36:37;9.13;;;4.32;;
836;SDS011;400;53.550;9.932;2023-02-01T11:39:23;13.25;;;4.07;;
836;SDS011;400;53.550;9.932;2023-02-01T11:41:57;12.25;;;7.07;;
836;SDS011;400;53.550;9.932;2023-02-01T11:44:41;12.65;;;5.05;;
836;SDS011;400;53.550;9.932;2023-02-01T11:47:21;11.73;;;3.33;;
836;SDS011;400;53.550;9.932;2023-02-01T11:49:54;11.23;;;4.15;;
836;SDS011;400;53.550;9.932;2023-02-01T11:52:36;12.32;;;3.50;;
836;SDS011;400;53.550;9.932;2023-02-01T11:55:17;4.60;;;2.13;;
836;SDS011;400;53.550;9.932;2023-02-01T11:58:19;9.88;;;2.38;;
836;SDS011;400;53.550;9.932;2023-02-01T12:01:12;11.65;;;3.35;;
836;SDS011;400;53.550;9.932;2023-02-01T12:04:13;7.60;;;2.05;;
836;SDS011;400;53.550;9.932;2023-02-01T12:07:24;14.77;;;3.03;;
836;SDS011;400;53.550;9.932;2023-02-01T12:10:06;13.18;;;2.65;;
836;SDS011;400;53.550;9.932;2023-02-01T12:12:59;10.38;;;2.42;;
836;SDS011;400;53.550;9.932;2023-02-01T12:15:51;10.43;;;2.67;;
836;SDS011;400;53.550;9.932;2023-02-01T12:21:41;7.32;;;2.38;;
836;SDS011;400;53.550;9.932;2023-02-01T12:24:25;7.53;;;1.85;;
836;SDS011;400;53.550;9.932;2023-02-01T12:27:27;7.43;;;2.30;;
836;SDS011;400;53.550;9.932;2023-02-01T12:33:11;4.57;;;2.53;;
836;SDS011;400;53.550;9.932;2023-02-01T12:35:51;6.20;;;0.85;;
836;SDS011;400;53.550;9.932;2023-02-01T12:38:51;2.63;;;1.25;;
836;SDS011;400;53.550;9.932;2023-02-01T12:41:47;1.80;;;1.27;;
836;SDS011;400;53.550;9.932;2023-02-01T12:47:47;1.27;;;0.52;;
836;SDS011;400;53.550;9.932;2023-02-01T12:50:19;2.22;;;2.03;;
836;SDS011;400;53.550;9.932;2023-02-01T12:52:53;2.17;;;0.50;;
836;SDS011;400;53.550;9.932;2023-02-01T12:55:36;2.17;;;0.60;;
836;SDS011;400;53.550;9.932;2023-02-01T12:58:15;1.58;;;0.65;;
836;SDS011;400;53.550;9.932;2023-02-01T13:00:46;0.88;;;0.55;;
836;SDS011;400;53.550;9.932;2023-02-01T13:03:19;2.55;;;0.50;;
836;SDS011;400;53.550;9.932;2023-02-01T13:05:56;1.30;;;0.70;;
836;SDS011;400;53.550;9.932;2023-02-01T13:08:37;0.80;;;0.50;;
836;SDS011;400;53.550;9.932;2023-02-01T13:11:12;1.30;;;0.30;;
836;SDS011;400;53.550;9.932;2023-02-01T13:13:48;1.05;;;0.30;;
836;SDS011;400;53.550;9.932;2023-02-01T13:16:31;1.40;;;1.30;;
836;SDS011;400;53.550;9.932;2023-02-01T13:19:05;2.85;;;0.85;;
836;SDS011;400;53.550;9.932;2023-02-01T13:21:49;1.95;;;0.50;;
836;SDS011;400;53.550;9.932;2023-02-01T13:24:28;1.38;;;0.60;;
836;SDS011;400;53.550;9.932;2023-02-01T13:27:02;1.65;;;0.65;;
836;SDS011;400;53.550;9.932;2023-02-01T13:29:45;0.50;;;0.50;;
836;SDS011;400;53.550;9.932;2023-02-01T13:32:29;1.92;;;1.02;;
836;SDS011;400;53.550;9.932;2023-02-01T13:35:34;0.75;;;0.70;;
836;SDS011;400;53.550;9.932;2023-02-01T13:42:22;1.20;;;0.50;;
836;SDS011;400;53.550;9.932;2023-02-01T13:48:18;1.55;;;0.77;;
836;SDS011;400;53.550;9.932;2023-02-01T13:50:58;3.05;;;1.05;;
836;SDS011;400;53.550;9.932;2023-02-01T13:53:31;0.93;;;0.70;;
836;SDS011;400;53.550;9.932;2023-02-01T13:56:03;1.00;;;0.70;;
836;SDS011;400;53.550;9.932;2023-02-01T13:58:35;1.38;;;1.05;;
836;SDS011;400;53.550;9.932;2023-02-01T14:07:17;3.35;;;0.73;;
836;SDS011;400;53.550;9.932;2023-02-01T14:09:50;3.15;;;1.17;;
836;SDS011;400;53.550;9.932;2023-02-01T14:12:44;2.05;;;0.88;;
836;SDS011;400;53.550;9.932;2023-02-01T14:15:21;2.13;;;0.80;;
836;SDS011;400;53.550;9.932;2023-02-01T14:17:51;2.40;;;1.17;;
836;SDS011;400;53.550;9.932;2023-02-01T14:23:24;6.70;;;1.25;;
836;SDS011;400;53.550;9.932;2023-02-01T14:26:02;6.78;;;1.42;;
836;SDS011;400;53.550;9.932;2023-02-01T14:28:43;8.38;;;1.50;;
836;SDS011;400;53.550;9.932;2023-02-01T14:31:15;5.05;;;2.08;;
836;SDS011;400;53.550;9.932;2023-02-01T14:34:15;5.30;;;1.48;;
836;SDS011;400;53.550;9.932;2023-02-01T14:36:53;5.47;;;1.85;;
836;SDS011;400;53.550;9.932;2023-02-01T14:42:25;2.95;;;0.82;;
836;SDS011;400;53.550;9.932;2023-02-01T14:51:13;4.13;;;1.50;;
836;SDS011;400;53.550;9.932;2023-02-01T14:53:55;8.88;;;1.90;;
836;SDS011;400;53.550;9.932;2023-02-01T14:56:24;5.97;;;2.20;;
836;SDS011;400;53.550;9.932;2023-02-01T14:58:56;11.15;;;1.80;;
836;SDS011;400;53.550;9.932;2023-02-01T15:01:31;6.05;;;2.83;;
836;SDS011;400;53.550;9.932;2023-02-01T15:06:55;5.07;;;2.28;;
836;SDS011;400;53.550;9.932;2023-02-01T15:09:28;7.53;;;1.90;;
836;SDS011;400;53.550;9.932;2023-02-01T15:12:01;7.72;;;3.30;;
836;SDS011;400;53.550;9.932;2023-02-01T15:14:33;6.88;;;1.60;;
836;SDS011;400;53.550;9.932;2023-02-01T15:17:16;4.88;;;2.28;;
836;SDS011;400;53.550;9.932;2023-02-01T15:19:53;7.80;;;2.40;;
836;SDS011;400;53.550;9.932;2023-02-01T15:22:21;8.02;;;2.15;;
836;SDS011;400;53.550;9.932;2023-02-01T15:24:51;6.82;;;2.97;;
836;SDS011;400;53.550;9.932;2023-02-01T15:27:23;7.18;;;2.30;;
836;SDS011;400;53.550;9.932;2023-02-01T15:29:52;8.77;;;1.25;;
836;SDS011;400;53.550;9.932;2023-02-01T15:32:28;4.20;;;1.50;;
836;SDS011;400;53.550;9.932;2023-02-01T15:34:58;3.97;;;2.20;;
836;SDS011;400;53.550;9.932;2023-02-01T15:37:29;6.78;;;1.17;;
836;SDS011;400;53.550;9.932;2023-02-01T15:40:03;6.57;;;1.85;;
836;SDS011;400;53.550;9.932;2023-02-01T15:42:49;4.60;;;1.23;;
836;SDS011;400;53.550;9.932;2023-02-01T15:45:19;4.53;;;2.25;;
836;SDS011;400;53.550;9.932;2023-02-01T15:47:54;2.83;;;1.20;;
836;SDS011;400;53.550;9.932;2023-02-01T15:50:28;9.10;;;2.10;;
836;SDS011;400;53.550;9.932;2023-02-01T15:52:59;4.53;;;2.20;;
836;SDS011;400;53.550;9.932;2023-02-01T15:55:29;8.32;;;1.92;;
836;SDS011;400;53.550;9.932;2023-02-01T15:58:06;5.60;;;1.83;;
836;SDS011;400;53.550;9.932;2023-02-01T16:00:42;11.23;;;3.08;;
836;SDS011;400;53.550;9.932;2023-02-01T16:03:24;8.55;;;2.70;;
836;SDS011;400;53.550;9.932;2023-02-01T16:06:03;13.25;;;2.45;;
836;SDS011;400;53.550;9.932;2023-02-01T16:08:34;7.35;;;2.80;;
836;SDS011;400;53.550;9.932;2023-02-01T16:13:50;11.88;;;2.63;;
836;SDS011;400;53.550;9.932;2023-02-01T16:16:20;10.00;;;2.90;;
836;SDS011;400;53.550;9.932;2023-02-01T16:18:49;9.85;;;2.75;;
836;SDS011;400;53.550;9.932;2023-02-01T16:21:31;12.35;;;2.70;;
836;SDS011;400;53.550;9.932;2023-02-01T16:24:02;15.90;;;3.25;;
836;SDS011;400;53.550;9.932;2023-02-01T16:26:30;9.63;;;3.95;;
836;SDS011;400;53.550;9.932;2023-02-01T16:28:57;11.80;;;2.70;;
836;SDS011;400;53.550;9.932;2023-02-01T16:31:28;17.00;;;3.88;;
836;SDS011;400;53.550;9.932;2023-02-01T16:33:56;10.25;;;3.17;;
836;SDS011;400;53.550;9.932;2023-02-01T16:36:26;14.80;;;3.33;;
836;SDS011;400;53.550;9.932;2023-02-01T16:38:56;12.68;;;3.72;;
836;SDS011;400;53.550;9.932;2023-02-01T16:41:28;12.98;;;4.82;;
836;SDS011;400;53.550;9.932;2023-02-01T16:44:02;44.42;;;27.83;;
836;SDS011;400;53.550;9.932;2023-02-01T16:46:35;17.88;;;5.05;;
836;SDS011;400;53.550;9.932;2023-02-01T16:49:08;19.15;;;4.85;;
836;SDS011;400;53.550;9.932;2023-02-01T16:51:55;13.07;;;3.72;;
836;SDS011;400;53.550;9.932;2023-02-01T16:54:27;9.48;;;3.72;;
836;SDS011;400;53.550;9.932;2023-02-01T16:57:03;9.68;;;3.83;;
836;SDS011;400;53.550;9.932;2023-02-01T16:59:43;11.60;;;5.25;;
836;SDS011;400;53.550;9.932;2023-02-01T17:02:18;16.30;;;5.55;;
836;SDS011;400;53.550;9.932;2023-02-01T17:04:52;18.05;;;5.30;;
836;SDS011;400;53.550;9.932;2023-02-01T17:07:26;17.98;;;4.38;;
836;SDS011;400;53.550;9.932;2023-02-01T17:09:58;13.27;;;5.18;;
836;SDS011;400;53.550;9.932;2023-02-01T17:12:38;17.23;;;5.47;;
836;SDS011;400;53.550;9.932;2023-02-01T17:15:10;19.80;;;4.03;;
836;SDS011;400;53.550;9.932;2023-02-01T17:17:59;10.90;;;3.25;;